createdAt,value
2023-01-09T00:00:51.638Z,72.00
2023-01-09T00:03:18.790Z,71.70
2023-01-09T00:05:45.700Z,71.50
2023-01-09T00:08:12.414Z,72.60
2023-01-09T00:10:39.610Z,73.20
2023-01-09T00:13:06.416Z,74.00
2023-01-09T00:15:33.172Z,75.60
2023-01-09T00:17:59.944Z,76.10
2023-01-09T00:20:26.690Z,77.10
2023-01-09T00:22:53.471Z,77.70
2023-01-09T00:25:20.183Z,78.20
2023-01-09T00:27:46.885Z,78.00
2023-01-09T00:30:13.882Z,78.10
2023-01-09T00:32:40.766Z,78.30
2023-01-09T00:35:09.911Z,78.80
2023-01-09T00:37:36.588Z,80.00
2023-01-09T00:40:03.461Z,80.90
2023-01-09T00:42:35.235Z,82.00
2023-01-09T00:45:07.931Z,83.60
2023-01-09T00:47:40.234Z,83.60
2023-01-09T00:50:15.960Z,83.80
2023-01-09T00:52:44.015Z,84.40
2023-01-09T00:55:11.412Z,84.10
2023-01-09T00:57:38.293Z,83.80
2023-01-09T01:00:06.189Z,84.10
2023-01-09T01:02:32.969Z,84.90
2023-01-09T01:05:18.143Z,84.60
2023-01-09T01:07:45.129Z,85.80
2023-01-09T01:10:20.439Z,85.80
2023-01-09T01:12:48.728Z,86.20
2023-01-09T01:15:16.635Z,86.00
2023-01-09T01:17:43.949Z,85.00
2023-01-09T01:20:14.591Z,84.50
2023-01-09T01:22:44.026Z,84.10
2023-01-09T01:25:12.865Z,83.70
2023-01-09T01:27:43.443Z,83.10
2023-01-09T01:30:13.343Z,83.30
2023-01-09T01:32:40.741Z,83.30
2023-01-09T01:35:08.760Z,82.70
2023-01-09T01:37:36.961Z,81.80
2023-01-09T01:40:05.762Z,81.60
2023-01-09T01:42:33.012Z,82.50
2023-01-09T01:45:07.500Z,83.20
2023-01-09T01:47:37.195Z,83.50
2023-01-09T01:50:10.071Z,83.00
2023-01-09T01:52:38.392Z,83.20
2023-01-09T01:55:08.266Z,83.50
2023-01-09T01:57:35.608Z,84.60
2023-01-09T02:00:04.639Z,83.40
2023-01-09T02:02:32.716Z,83.80
2023-01-09T02:05:01.742Z,83.00
2023-01-09T02:07:28.616Z,83.90
2023-01-09T02:09:55.772Z,83.70
2023-01-09T02:12:28.000Z,85.90
2023-01-09T02:15:06.022Z,87.30
2023-01-09T02:17:48.094Z,87.20
2023-01-09T02:20:40.296Z,87.00
2023-01-09T02:23:31.124Z,87.30
2023-01-09T02:26:23.981Z,87.60
2023-01-09T02:29:02.797Z,86.80
2023-01-09T02:31:50.117Z,86.20
2023-01-09T02:34:53.547Z,86.60
2023-01-09T02:37:35.384Z,87.20
2023-01-09T02:40:23.203Z,87.90
2023-01-09T02:42:51.980Z,88.80
2023-01-09T02:45:18.847Z,88.20
2023-01-09T02:47:47.411Z,88.60
2023-01-09T02:50:34.591Z,89.00
2023-01-09T02:53:20.034Z,88.90
2023-01-09T02:55:58.957Z,88.80
2023-01-09T02:58:34.637Z,88.70
2023-01-09T03:01:04.905Z,88.10
2023-01-09T03:03:37.077Z,87.60
2023-01-09T03:06:06.800Z,87.30
2023-01-09T03:08:43.387Z,88.00
2023-01-09T03:11:11.897Z,87.80
2023-01-09T03:13:44.734Z,87.60
2023-01-09T03:16:15.997Z,87.20
2023-01-09T03:18:44.192Z,87.30
2023-01-09T03:21:11.747Z,87.20
2023-01-09T03:23:53.951Z,86.90
2023-01-09T03:26:21.219Z,86.70
2023-01-09T03:28:49.221Z,86.00
2023-01-09T03:31:16.040Z,85.30
2023-01-09T03:33:43.225Z,85.40
2023-01-09T03:36:11.836Z,85.10
2023-01-09T03:38:38.924Z,85.10
2023-01-09T03:41:05.873Z,84.80
2023-01-09T03:43:32.670Z,84.40
2023-01-09T03:45:59.545Z,83.80
2023-01-09T03:48:26.399Z,83.60
2023-01-09T03:50:54.878Z,83.50
2023-01-09T03:53:23.645Z,83.60
2023-01-09T03:55:53.747Z,83.00
2023-01-09T03:58:22.027Z,83.10
2023-01-09T04:00:49.437Z,83.60
2023-01-09T04:03:17.488Z,84.10
2023-01-09T04:05:45.369Z,84.90
2023-01-09T04:08:12.093Z,85.00
2023-01-09T04:10:38.800Z,84.60
2023-01-09T04:13:05.476Z,84.90
2023-01-09T04:15:32.176Z,85.60
2023-01-09T04:17:58.837Z,85.80
2023-01-09T04:20:25.592Z,86.00
2023-01-09T04:22:52.311Z,86.20
2023-01-09T04:25:19.050Z,86.10
2023-01-09T04:27:46.502Z,86.50
2023-01-09T04:30:14.359Z,86.10
2023-01-09T04:32:41.050Z,86.00
2023-01-09T04:35:08.345Z,85.50
2023-01-09T04:37:36.730Z,85.00
2023-01-09T04:40:08.781Z,84.30
2023-01-09T04:42:35.525Z,82.50
2023-01-09T04:45:02.536Z,81.70
2023-01-09T04:47:31.088Z,80.70
2023-01-09T04:49:57.981Z,79.90
2023-01-09T04:52:24.818Z,79.70
2023-01-09T04:54:51.592Z,78.60
2023-01-09T04:57:18.532Z,77.80
2023-01-09T04:59:45.293Z,77.90
2023-01-09T05:02:12.437Z,77.50
2023-01-09T05:04:39.426Z,78.00
2023-01-09T05:07:06.155Z,77.50
2023-01-09T05:09:32.983Z,78.30
2023-01-09T05:12:01.724Z,79.10
2023-01-09T05:14:28.706Z,79.70
2023-01-09T05:16:55.389Z,82.00
2023-01-09T05:19:22.621Z,82.60
2023-01-09T05:21:49.488Z,83.70
2023-01-09T05:24:16.186Z,84.90
2023-01-09T05:26:42.866Z,86.20
2023-01-09T05:29:10.708Z,87.30
2023-01-09T05:31:37.535Z,88.50
2023-01-09T05:34:04.379Z,89.30
2023-01-09T05:36:31.225Z,89.30
2023-01-09T05:38:58.208Z,89.90
2023-01-09T05:41:26.297Z,90.10
2023-01-09T05:43:53.312Z,90.40
2023-01-09T05:46:20.011Z,90.90
2023-01-09T05:48:46.824Z,90.40
2023-01-09T05:51:13.537Z,90.30
2023-01-09T05:53:40.434Z,90.00
2023-01-09T05:56:07.377Z,90.20
2023-01-09T05:58:34.197Z,88.40
2023-01-09T06:01:01.005Z,85.90
2023-01-09T06:03:27.786Z,84.40
2023-01-09T06:05:54.590Z,81.80
2023-01-09T06:08:21.724Z,81.20
2023-01-09T06:10:48.612Z,80.10
2023-01-09T06:13:15.434Z,79.40
2023-01-09T06:15:42.529Z,78.40
2023-01-09T06:18:09.580Z,77.80
2023-01-09T06:20:36.330Z,77.80
2023-01-09T06:23:03.239Z,78.90
2023-01-09T06:25:29.952Z,80.70
2023-01-09T06:27:56.789Z,82.60
2023-01-09T06:30:23.513Z,84.10
2023-01-09T06:32:50.627Z,84.50
2023-01-09T06:35:22.307Z,85.10
2023-01-09T06:37:49.912Z,85.90
2023-01-09T06:40:17.783Z,86.80
2023-01-09T06:42:48.440Z,86.30
2023-01-09T06:45:16.162Z,86.30
2023-01-09T06:47:43.137Z,85.60
2023-01-09T06:50:10.867Z,85.10
2023-01-09T06:52:38.355Z,85.40
2023-01-09T06:55:05.731Z,86.10
2023-01-09T06:57:32.516Z,86.50
2023-01-09T06:59:59.291Z,87.10
2023-01-09T07:02:26.080Z,87.00
2023-01-09T07:04:53.065Z,87.20
2023-01-09T07:07:20.411Z,87.70
2023-01-09T07:09:47.230Z,87.10
2023-01-09T07:12:15.464Z,86.00
2023-01-09T07:14:42.227Z,86.20
2023-01-09T07:17:12.600Z,85.60
2023-01-09T07:19:39.399Z,84.30
2023-01-09T07:22:06.127Z,84.50
2023-01-09T07:24:32.870Z,84.30
2023-01-09T07:26:59.559Z,84.60
2023-01-09T07:29:26.271Z,84.60
2023-01-09T07:31:53.038Z,85.10
2023-01-09T07:34:19.786Z,85.00
2023-01-09T07:36:46.765Z,84.30
2023-01-09T07:39:13.813Z,83.30
2023-01-09T07:41:40.701Z,83.10
2023-01-09T07:44:09.603Z,83.00
2023-01-09T07:46:37.819Z,81.20
2023-01-09T07:49:04.997Z,81.30
2023-01-09T07:51:31.721Z,79.90
2023-01-09T07:53:58.512Z,78.80
2023-01-09T07:56:25.301Z,79.80
2023-01-09T07:58:52.039Z,78.70
2023-01-09T08:01:18.834Z,77.60
2023-01-09T08:03:45.572Z,78.20
2023-01-09T08:06:12.315Z,78.50
2023-01-09T08:08:39.037Z,78.20
2023-01-09T08:11:05.821Z,76.50
2023-01-09T08:13:32.560Z,76.10
2023-01-09T08:15:59.359Z,74.60
2023-01-09T08:18:26.217Z,74.30
2023-01-09T08:20:52.939Z,73.20
2023-01-09T08:23:19.806Z,73.80
2023-01-09T08:25:46.569Z,74.20
2023-01-09T08:28:13.403Z,74.00
2023-01-09T08:30:40.367Z,75.30
2023-01-09T08:33:07.162Z,76.10
2023-01-09T08:35:33.888Z,76.10
2023-01-09T08:38:01.046Z,76.10
2023-01-09T08:40:27.850Z,76.80
2023-01-09T08:43:13.374Z,76.90
2023-01-09T08:45:58.713Z,76.60
2023-01-09T08:48:25.589Z,76.20
2023-01-09T08:50:54.143Z,74.80
2023-01-09T08:53:20.942Z,74.00
2023-01-09T08:55:47.690Z,74.30
2023-01-09T08:58:14.430Z,71.80
2023-01-09T09:00:41.278Z,71.90
2023-01-09T09:03:11.765Z,70.60
2023-01-09T09:05:38.478Z,70.70
2023-01-09T09:08:06.227Z,70.50
2023-01-09T09:10:32.979Z,69.80
2023-01-09T09:12:59.995Z,68.90
2023-01-09T09:15:28.396Z,68.20
2023-01-09T09:17:59.407Z,67.60
2023-01-09T09:20:28.899Z,66.30
2023-01-09T09:22:55.844Z,64.60
2023-01-09T09:25:23.180Z,63.80
2023-01-09T09:27:50.213Z,63.60
2023-01-09T09:30:19.268Z,62.70
2023-01-09T09:32:46.689Z,62.00
2023-01-09T09:35:13.571Z,62.20
2023-01-09T09:37:40.450Z,61.60
2023-01-09T09:40:18.591Z,61.10
2023-01-09T09:43:22.080Z,60.00
2023-01-09T09:46:32.903Z,58.80
2023-01-09T09:49:12.848Z,59.70
2023-01-09T09:51:54.687Z,58.80
2023-01-09T09:54:31.338Z,58.80
2023-01-09T09:57:01.078Z,58.90
2023-01-09T09:59:33.353Z,57.50
2023-01-09T10:02:06.320Z,57.50
2023-01-09T10:04:36.979Z,57.50
2023-01-09T10:07:09.812Z,57.50
2023-01-09T10:09:36.551Z,57.70
2023-01-09T10:12:12.823Z,57.30
2023-01-09T10:14:39.896Z,56.60
2023-01-09T10:17:20.544Z,57.50
2023-01-09T10:20:12.095Z,57.60
2023-01-09T10:23:03.040Z,57.50
2023-01-09T10:25:52.467Z,58.20
2023-01-09T10:28:43.944Z,58.30
2023-01-09T10:31:28.928Z,58.00
2023-01-09T10:34:17.446Z,58.10
2023-01-09T10:37:06.064Z,57.90
2023-01-09T10:39:40.544Z,57.50
2023-01-09T10:42:21.259Z,56.90
2023-01-09T10:45:01.720Z,57.30
2023-01-09T10:47:32.670Z,56.70
2023-01-09T10:50:01.879Z,55.50
2023-01-09T10:52:39.952Z,56.10
2023-01-09T10:55:35.856Z,56.00
2023-01-09T10:58:04.552Z,55.00
2023-01-09T11:00:31.384Z,55.60
2023-01-09T11:02:58.119Z,54.40
2023-01-09T11:05:31.170Z,54.50
2023-01-09T11:08:14.045Z,54.10
2023-01-09T11:11:01.250Z,53.90
2023-01-09T11:13:33.918Z,53.00
2023-01-09T11:16:02.221Z,53.40
2023-01-09T11:18:29.243Z,53.10
2023-01-09T11:20:56.588Z,52.30
2023-01-09T11:23:26.967Z,52.20
2023-01-09T11:25:56.744Z,52.30
2023-01-09T11:28:23.745Z,51.20
2023-01-09T11:31:03.802Z,51.00
2023-01-09T11:33:47.582Z,50.60
2023-01-09T11:36:15.977Z,49.50
2023-01-09T11:39:02.713Z,49.00
2023-01-09T11:41:34.925Z,49.50
2023-01-09T11:44:04.188Z,48.60
2023-01-09T11:46:38.023Z,48.30
2023-01-09T11:49:27.128Z,48.00
2023-01-09T11:52:17.703Z,47.90
2023-01-09T11:55:07.068Z,47.20
2023-01-09T11:57:34.669Z,47.20
2023-01-09T12:00:26.154Z,47.30
2023-01-09T12:03:23.712Z,46.00
2023-01-09T12:06:20.953Z,45.90
2023-01-09T12:09:07.924Z,45.90
2023-01-09T12:12:04.412Z,46.40
2023-01-09T12:15:09.941Z,46.70
2023-01-09T12:18:10.047Z,45.50
2023-01-09T12:20:51.637Z,45.90
2023-01-09T12:23:48.187Z,45.80
2023-01-09T12:26:25.299Z,45.30
2023-01-09T12:29:12.648Z,46.00
2023-01-09T12:32:06.632Z,45.60
2023-01-09T12:34:59.661Z,44.80
2023-01-09T12:37:48.168Z,45.60
2023-01-09T12:40:54.636Z,45.40
2023-01-09T12:43:40.634Z,45.20
2023-01-09T12:46:16.637Z,45.10
2023-01-09T12:48:43.345Z,45.60
2023-01-09T12:51:38.376Z,45.40
2023-01-09T12:54:12.491Z,45.50
2023-01-09T12:56:45.431Z,45.50
2023-01-09T12:59:30.763Z,45.50
2023-01-09T13:02:10.112Z,44.90
2023-01-09T13:04:45.178Z,45.50
2023-01-09T13:07:35.988Z,45.90
2023-01-09T13:10:26.024Z,45.60
2023-01-09T13:12:54.346Z,45.10
2023-01-09T13:15:39.567Z,45.40
2023-01-09T13:18:16.498Z,44.90
2023-01-09T13:20:49.974Z,45.00
2023-01-09T13:23:35.565Z,45.40
2023-01-09T13:26:06.260Z,45.10
2023-01-09T13:28:42.333Z,45.10
2023-01-09T13:31:42.924Z,44.50
2023-01-09T13:34:25.032Z,44.40
2023-01-09T13:36:54.744Z,44.50
2023-01-09T13:39:27.512Z,44.90
2023-01-09T13:42:21.292Z,44.20
2023-01-09T13:44:50.444Z,43.80
2023-01-09T13:47:28.054Z,43.90
2023-01-09T13:50:01.887Z,44.10
2023-01-09T13:52:41.645Z,43.00
2023-01-09T13:55:16.867Z,43.70
2023-01-09T13:58:14.112Z,43.20
2023-01-09T14:00:44.506Z,43.60
2023-01-09T14:03:20.257Z,43.10
2023-01-09T14:05:46.950Z,42.90
2023-01-09T14:08:18.147Z,42.40
2023-01-09T14:10:44.837Z,42.50
2023-01-09T14:13:24.495Z,42.60
2023-01-09T14:16:01.283Z,41.60
2023-01-09T14:18:34.624Z,42.20
2023-01-09T14:23:52.793Z,42.90
2023-01-09T14:26:25.497Z,42.90
2023-01-09T14:28:52.623Z,42.90
2023-01-09T14:31:30.754Z,43.10
2023-01-09T14:34:31.878Z,43.30
2023-01-09T14:37:01.439Z,43.70
2023-01-09T14:39:31.535Z,44.20
2023-01-09T14:42:07.851Z,44.60
2023-01-09T14:44:43.273Z,45.00
2023-01-09T14:47:31.765Z,46.40
2023-01-09T14:50:17.503Z,47.50
2023-01-09T14:53:13.372Z,48.90
2023-01-09T14:55:51.172Z,49.80
2023-01-09T14:58:29.671Z,51.10
2023-01-09T15:01:12.437Z,51.50
2023-01-09T15:04:05.978Z,51.70
2023-01-09T15:06:37.817Z,51.10
2023-01-09T15:09:19.914Z,50.60
2023-01-09T15:11:47.098Z,51.20
2023-01-09T15:14:36.033Z,51.50
2023-01-09T15:17:04.420Z,51.20
2023-01-09T15:19:32.205Z,51.20
2023-01-09T15:22:05.312Z,51.10
2023-01-09T15:24:34.616Z,51.70
2023-01-09T15:27:13.065Z,53.20
2023-01-09T15:29:39.752Z,55.30
2023-01-09T15:32:14.568Z,57.60
2023-01-09T15:34:44.963Z,59.20
2023-01-09T15:37:32.752Z,60.40
2023-01-09T15:40:02.132Z,61.30
2023-01-09T15:42:52.484Z,61.50
2023-01-09T15:45:43.071Z,62.00
2023-01-09T15:48:21.752Z,61.50
2023-01-09T15:50:55.180Z,61.30
2023-01-09T15:53:24.489Z,61.60
2023-01-09T15:56:30.631Z,61.60
2023-01-09T15:58:58.502Z,62.20
2023-01-09T16:01:38.049Z,61.40
2023-01-09T16:04:11.448Z,60.50
2023-01-09T16:06:50.156Z,60.40
2023-01-09T16:09:30.918Z,59.70
2023-01-09T16:12:00.787Z,59.70
2023-01-09T16:14:38.654Z,59.20
2023-01-09T16:17:08.883Z,59.10
2023-01-09T16:19:41.483Z,58.40
2023-01-09T16:22:24.019Z,58.10
2023-01-09T16:24:54.589Z,58.20
2023-01-09T16:27:22.371Z,58.50
2023-01-09T16:29:50.751Z,58.50
2023-01-09T16:32:20.303Z,58.80
2023-01-09T16:34:52.194Z,58.80
2023-01-09T16:37:19.420Z,58.70
2023-01-09T16:40:07.175Z,59.50
2023-01-09T16:42:52.408Z,58.50
2023-01-09T16:45:19.778Z,59.50
2023-01-09T16:47:47.024Z,57.70
2023-01-09T16:50:14.020Z,58.50
2023-01-09T16:52:40.810Z,58.50
2023-01-09T16:55:07.928Z,58.10
2023-01-09T16:57:35.179Z,58.30
2023-01-09T17:00:02.517Z,57.80
2023-01-09T17:02:29.284Z,57.80
2023-01-09T17:04:56.120Z,58.00
2023-01-09T17:07:26.655Z,58.20
2023-01-09T17:09:53.501Z,58.00
2023-01-09T17:12:26.584Z,58.20
2023-01-09T17:14:53.499Z,58.80
2023-01-09T17:17:23.512Z,58.80
2023-01-09T17:19:50.304Z,58.70
2023-01-09T17:22:24.065Z,58.60
2023-01-09T17:25:09.537Z,58.20
2023-01-09T17:27:56.025Z,58.30
2023-01-09T17:30:22.842Z,58.30
2023-01-09T17:32:49.717Z,58.50
2023-01-09T17:35:16.995Z,58.70
2023-01-09T17:37:44.426Z,58.10
2023-01-09T17:40:20.019Z,58.10
2023-01-09T17:42:46.823Z,58.30
2023-01-09T17:45:13.906Z,58.00
2023-01-09T17:47:40.730Z,57.90
2023-01-09T17:50:12.809Z,57.10
2023-01-09T17:52:39.511Z,57.70
2023-01-09T17:55:06.811Z,57.90
2023-01-09T17:57:33.717Z,57.80
2023-01-09T18:00:00.575Z,57.80
2023-01-09T18:02:27.390Z,57.60
2023-01-09T18:04:54.169Z,56.70
2023-01-09T18:07:21.103Z,57.40
2023-01-09T18:09:47.898Z,57.20
2023-01-09T18:12:14.803Z,57.40
2023-01-09T18:14:42.240Z,57.00
2023-01-09T18:17:12.161Z,56.90
2023-01-09T18:19:38.902Z,56.60
2023-01-09T18:22:05.630Z,56.60
2023-01-09T18:24:32.358Z,56.70
2023-01-09T18:26:59.056Z,57.20
2023-01-09T18:29:25.849Z,57.50
2023-01-09T18:31:52.829Z,57.80
2023-01-09T18:34:19.602Z,58.10
2023-01-09T18:36:46.340Z,58.10
2023-01-09T18:39:13.067Z,57.90
2023-01-09T18:41:39.777Z,57.90
2023-01-09T18:44:06.533Z,57.90
2023-01-09T18:46:33.330Z,58.20
2023-01-09T18:49:02.316Z,58.20
2023-01-09T18:51:30.031Z,58.20
2023-01-09T18:53:57.294Z,58.80
2023-01-09T18:56:24.847Z,58.70
2023-01-09T18:58:56.821Z,58.30
2023-01-09T19:01:24.198Z,58.80
2023-01-09T19:03:51.037Z,58.70
2023-01-09T19:06:17.951Z,58.90
2023-01-09T19:08:44.651Z,58.20
2023-01-09T19:11:11.407Z,58.50
2023-01-09T19:13:39.223Z,58.50
2023-01-09T19:16:08.036Z,57.70
2023-01-09T19:18:39.926Z,57.90
2023-01-09T19:21:27.044Z,57.80
2023-01-09T19:23:54.779Z,58.20
2023-01-09T19:26:24.098Z,58.20
2023-01-09T19:28:51.860Z,58.40
2023-01-09T19:31:18.979Z,58.70
2023-01-09T19:33:45.841Z,59.80
2023-01-09T19:36:12.923Z,60.40
2023-01-09T19:38:39.865Z,60.30
2023-01-09T19:41:19.208Z,60.50
2023-01-09T19:43:47.303Z,61.10
2023-01-09T19:46:17.039Z,61.20
2023-01-09T19:48:43.846Z,61.10
2023-01-09T19:51:12.401Z,61.10
2023-01-09T19:53:40.397Z,61.00
2023-01-09T19:56:10.003Z,60.90
2023-01-09T19:58:36.904Z,61.10
2023-01-09T20:01:14.987Z,61.00
2023-01-09T20:03:43.456Z,60.80
2023-01-09T20:06:17.480Z,60.90
2023-01-09T20:08:45.254Z,60.10
2023-01-09T20:11:12.170Z,60.60
2023-01-09T20:13:39.089Z,61.00
2023-01-09T20:16:06.703Z,61.10
2023-01-09T20:18:34.849Z,61.30
2023-01-09T20:21:02.332Z,61.30
2023-01-09T20:23:29.504Z,61.30
2023-01-09T20:25:57.417Z,61.10
2023-01-09T20:28:25.354Z,60.90
2023-01-09T20:30:53.900Z,60.40
2023-01-09T20:33:21.396Z,60.00
2023-01-09T20:35:48.636Z,59.40
2023-01-09T20:38:15.345Z,59.70
2023-01-09T20:40:45.617Z,60.00
2023-01-09T20:43:13.062Z,60.40
2023-01-09T20:45:40.730Z,60.70
2023-01-09T20:48:08.396Z,61.90
2023-01-09T20:50:35.271Z,63.30
2023-01-09T20:53:02.694Z,63.80
2023-01-09T20:55:29.609Z,64.60
2023-01-09T20:57:56.377Z,65.50
2023-01-09T21:00:27.318Z,66.90
2023-01-09T21:02:54.535Z,67.80
2023-01-09T21:05:21.314Z,67.80
2023-01-09T21:07:48.417Z,68.40
2023-01-09T21:10:15.393Z,68.30
2023-01-09T21:12:42.103Z,69.20
2023-01-09T21:15:11.510Z,70.00
2023-01-09T21:17:40.107Z,69.70
2023-01-09T21:20:12.016Z,69.60
2023-01-09T21:22:39.188Z,69.90
2023-01-09T21:25:06.479Z,70.00
2023-01-09T21:27:39.056Z,70.20
2023-01-09T21:30:08.234Z,69.90
2023-01-09T21:32:35.441Z,70.30
2023-01-09T21:35:05.971Z,70.30
2023-01-09T21:37:35.553Z,70.40
2023-01-09T21:40:03.283Z,70.50
2023-01-09T21:42:48.735Z,70.80
2023-01-09T21:45:36.051Z,71.00
2023-01-09T21:48:04.486Z,70.80
2023-01-09T21:50:32.632Z,70.50
2023-01-09T21:52:59.877Z,71.00
2023-01-09T21:55:26.700Z,71.00
2023-01-09T21:57:56.687Z,71.70
2023-01-09T22:00:24.521Z,71.80
2023-01-09T22:02:51.678Z,72.10
2023-01-09T22:05:18.454Z,72.80
2023-01-09T22:07:45.190Z,72.90
2023-01-09T22:10:12.472Z,73.00
2023-01-09T22:12:39.276Z,72.80
2023-01-09T22:15:06.598Z,73.10
2023-01-09T22:17:33.310Z,72.60
2023-01-09T22:20:00.048Z,72.10
2023-01-09T22:22:26.803Z,72.20
2023-01-09T22:24:53.797Z,72.10
2023-01-09T22:27:20.538Z,72.50
2023-01-09T22:29:47.345Z,72.70
2023-01-09T22:32:14.057Z,72.20
2023-01-09T22:34:40.830Z,72.30
2023-01-09T22:37:07.601Z,72.00
2023-01-09T22:39:34.463Z,71.20
2023-01-09T22:42:01.273Z,70.80
2023-01-09T22:44:28.136Z,70.60
2023-01-09T22:46:56.530Z,70.50
2023-01-09T22:49:23.233Z,70.10
2023-01-09T22:51:50.111Z,70.30
2023-01-09T22:54:17.051Z,70.40
2023-01-09T22:56:43.917Z,70.20
2023-01-09T22:59:10.606Z,70.30
2023-01-09T23:01:37.445Z,70.60
2023-01-09T23:04:04.927Z,70.40
2023-01-09T23:06:31.746Z,70.10
2023-01-09T23:08:58.532Z,70.10
2023-01-09T23:11:47.660Z,69.80
2023-01-09T23:14:14.394Z,70.10
2023-01-09T23:16:41.845Z,70.10
2023-01-09T23:19:09.899Z,69.80
2023-01-09T23:21:37.337Z,69.20
2023-01-09T23:24:06.845Z,69.10
2023-01-09T23:26:38.745Z,69.80
2023-01-09T23:29:08.442Z,70.40
2023-01-09T23:31:35.950Z,70.40
2023-01-09T23:34:04.162Z,71.20
2023-01-09T23:36:31.116Z,71.30
2023-01-09T23:38:59.658Z,71.10
2023-01-09T23:41:45.210Z,70.30
2023-01-09T23:44:12.001Z,70.50
2023-01-09T23:46:38.903Z,69.80
2023-01-09T23:49:05.843Z,70.30
2023-01-09T23:51:32.615Z,69.80
2023-01-09T23:53:59.325Z,69.00
2023-01-09T23:56:26.077Z,69.00
2023-01-09T23:58:52.862Z,68.40
